Time;durP1;ratioP1;P1;durP2;ratioP2;P2;SDS_P1;SDS_P2;PMS_P1;PMS_P2;Temp;Humidity;BMP_temperature;BMP_pressure;BME280_temperature;BME280_humidity;BME280_pressure;Samples;Min_cycle;Max_cycle;Signal;HPM_P1;HPM_P2
2022/09/16 00:01:56;;;;;;;8.30;5.30;;;;;;;19.33;79.49;98161.32;25070;1315;3057116;-62
2022/09/16 00:04:25;;;;;;;8.30;6.10;;;;;;;19.52;78.38;98155.29;25020;1316;3026877;-59
2022/09/16 00:06:54;;;;;;;10.30;6.10;;;;;;;19.23;79.24;98153.02;25072;1316;3054955;-62
2022/09/16 00:09:23;;;;;;;10.70;6.80;;;;;;;19.19;78.98;98150.13;25038;1315;3028200;-61
2022/09/16 00:11:53;;;;;;;9.20;6.30;;;;;;;18.90;80.34;98142.17;25024;1316;3051654;-62
2022/09/16 00:14:22;;;;;;;7.50;3.80;;;;;;;18.75;81.15;98139.91;25089;1316;3026531;-61
2022/09/16 00:16:51;;;;;;;10.40;5.20;;;;;;;19.20;80.05;98142.39;25030;1316;3048177;-61
2022/09/16 00:19:21;;;;;;;10.80;5.90;;;;;;;19.42;79.02;98141.21;25031;1315;3026558;-61
2022/09/16 00:21:50;;;;;;;10.60;5.70;;;;;;;19.36;78.65;98144.20;25080;1315;3026929;-61
2022/09/16 00:24:19;;;;;;;11.90;6.20;;;;;;;19.10;79.54;98147.35;25047;1315;3026922;-61
2022/09/16 00:26:48;;;;;;;10.40;5.50;;;;;;;18.82;80.42;98151.04;25091;1316;3054795;-64
2022/09/16 00:29:17;;;;;;;5.00;3.50;;;;;;;18.63;81.53;98148.88;25041;1315;3026739;-60
2022/09/16 00:31:46;;;;;;;10.50;5.40;;;;;;;18.94;80.78;98146.06;25073;1316;3048663;-60
2022/09/16 00:34:16;;;;;;;8.90;5.60;;;;;;;19.29;79.34;98149.87;25052;1316;3026423;-61
2022/09/16 00:36:45;;;;;;;9.10;5.60;;;;;;;18.95;80.57;98147.47;25027;1315;3026673;-61
2022/09/16 00:39:13;;;;;;;12.40;5.80;;;;;;;18.89;80.29;98154.14;25039;1315;3050956;-61
2022/09/16 00:41:51;;;;;;;11.90;6.00;;;;;;;18.62;81.93;98157.07;25049;1316;3055455;-60
2022/09/16 00:44:52;;;;;;;10.60;4.60;;;;;;;18.59;81.58;98153.67;25098;1315;3026704;-60
2022/09/16 00:47:29;;;;;;;9.30;5.50;;;;;;;19.04;80.65;98144.94;25090;1315;3050800;-62
2022/09/16 00:50:01;;;;;;;12.90;5.90;;;;;;;18.87;81.03;98141.27;25089;1316;3053005;-63
2022/09/16 00:52:31;;;;;;;11.20;5.70;;;;;;;18.61;82.13;98139.63;25097;1322;3026749;-61
2022/09/16 00:55:02;;;;;;;8.50;5.80;;;;;;;18.29;83.87;98136.83;25005;1316;3026422;-61
2022/09/16 00:57:31;;;;;;;10.20;4.30;;;;;;;18.23;84.32;98132.65;25035;1319;3027068;-61
2022/09/16 01:00:01;;;;;;;10.10;5.50;;;;;;;18.69;82.53;98126.83;25052;1315;3026722;-62
2022/09/16 01:02:30;;;;;;;9.50;5.60;;;;;;;18.85;81.68;98116.86;25060;1318;3056894;-60
2022/09/16 01:05:11;;;;;;;9.30;5.70;;;;;;;18.76;81.75;98118.03;24984;1318;3027680;-62
2022/09/16 01:07:43;;;;;;;9.70;6.50;;;;;;;18.55;82.50;98113.87;24962;1318;3052044;-62
2022/09/16 01:10:13;;;;;;;7.20;3.60;;;;;;;18.28;83.88;98112.88;25082;1318;3026481;-61
2022/09/16 01:12:46;;;;;;;7.90;5.10;;;;;;;18.66;82.90;98118.17;25090;1315;3026436;-60
2022/09/16 01:15:16;;;;;;;9.60;5.00;;;;;;;18.95;81.22;98117.75;25056;1316;3027677;-60
2022/09/16 01:17:49;;;;;;;7.70;5.30;;;;;;;18.80;81.05;98124.30;25059;1315;3026758;-60
2022/09/16 01:20:46;;;;;;;9.00;5.80;;;;;;;18.52;82.68;98119.40;25022;1315;3026429;-59
2022/09/16 01:23:33;;;;;;;8.40;5.40;;;;;;;18.17;84.34;98123.17;25039;1316;3052211;-61
2022/09/16 01:26:24;;;;;;;9.30;3.30;;;;;;;18.03;85.73;98119.73;25077;1315;3052790;-63
2022/09/16 01:28:59;;;;;;;14.40;6.20;;;;;;;18.58;83.69;98117.42;25043;1315;3055071;-61
2022/09/16 01:31:34;;;;;;;14.90;7.40;;;;;;;18.72;82.34;98113.55;25088;1315;3059470;-60
2022/09/16 01:34:09;;;;;;;14.70;7.40;;;;;;;18.74;81.98;98119.92;25013;1315;3050070;-60
2022/09/16 01:37:09;;;;;;;12.50;7.10;;;;;;;18.47;82.41;98127.35;25011;1315;3056197;-60
2022/09/16 01:39:38;;;;;;;10.20;4.50;;;;;;;18.39;83.14;98134.55;25106;1315;3052606;-61
2022/09/16 01:42:16;;;;;;;13.20;5.70;;;;;;;18.80;82.26;98129.11;25001;1315;3026978;-61
2022/09/16 01:44:48;;;;;;;11.60;5.90;;;;;;;18.82;81.77;98138.81;25083;1315;3055206;-62
2022/09/16 01:47:33;;;;;;;9.10;5.80;;;;;;;18.69;82.02;98137.41;25043;1318;3026342;-61
2022/09/16 01:50:18;;;;;;;;;;;;;;;18.46;83.09;98132.67;25151;1315;3069694;-64
2022/09/16 01:53:07;;;;;;;12.00;6.30;;;;;;;18.21;84.03;98134.05;25045;1316;3053530;-62
2022/09/16 01:55:40;;;;;;;6.90;3.80;;;;;;;18.08;85.06;98133.92;25088;1315;3053324;-61
2022/09/16 01:58:26;;;;;;;9.10;4.80;;;;;;;18.65;83.91;98121.94;25042;1316;3055207;-62
2022/09/16 02:01:04;;;;;;;14.10;6.20;;;;;;;18.97;81.53;98113.66;25029;1316;3058821;-61
2022/09/16 02:03:35;;;;;;;11.10;5.80;;;;;;;18.86;82.18;98107.69;25031;1315;3050196;-62
2022/09/16 02:06:24;;;;;;;13.80;7.10;;;;;;;18.56;83.33;98115.52;25107;1315;3026345;-61
2022/09/16 02:08:58;;;;;;;14.20;5.50;;;;;;;18.35;84.61;98118.48;25057;1316;3054687;-60
2022/09/16 02:11:27;;;;;;;11.80;5.60;;;;;;;18.77;83.54;98115.14;25095;1315;3069731;-60
2022/09/16 02:14:01;;;;;;;18.80;7.00;;;;;;;19.04;81.91;98119.30;25034;1315;3026006;-61
2022/09/16 02:16:34;;;;;;;10.50;6.50;;;;;;;18.76;82.71;98130.10;24945;1315;3054942;-61
2022/09/16 02:19:11;;;;;;;12.80;7.40;;;;;;;18.74;82.44;98120.95;25009;1315;3029036;-61
2022/09/16 02:21:41;;;;;;;11.70;5.30;;;;;;;18.52;83.59;98134.94;25018;1316;3048715;-59
2022/09/16 02:24:13;;;;;;;14.20;6.80;;;;;;;18.82;82.66;98148.75;25095;1316;3026221;-63
2022/09/16 02:26:45;;;;;;;13.50;6.80;;;;;;;19.00;81.73;98146.54;25084;1315;3069839;-61
2022/09/16 02:29:17;;;;;;;12.50;7.10;;;;;;;18.79;82.62;98143.59;25081;1315;3026078;-63
2022/09/16 02:31:46;;;;;;;10.00;7.20;;;;;;;18.58;83.39;98138.58;25078;1316;3026238;-60
2022/09/16 02:34:17;;;;;;;11.80;4.70;;;;;;;18.48;84.01;98134.72;25035;1315;3026850;-60
2022/09/16 02:36:48;;;;;;;12.60;5.80;;;;;;;18.95;82.86;98123.42;25153;1316;3048685;-60
2022/09/16 02:39:20;;;;;;;13.70;7.40;;;;;;;19.06;82.23;98123.42;25087;1316;3027420;-59
2022/09/16 02:41:49;;;;;;;12.30;7.70;;;;;;;18.97;82.38;98123.27;25078;1316;3026610;-62
2022/09/16 02:44:18;;;;;;;18.30;8.80;;;;;;;18.71;83.32;98128.92;25099;1316;3026537;-61
2022/09/16 02:46:56;;;;;;;10.50;5.40;;;;;;;18.46;85.19;98126.27;25071;1315;3052479;-60
2022/09/16 02:49:45;;;;;;;10.50;5.40;;;;;;;18.85;84.03;98127.52;24386;1316;4711400;-62
2022/09/16 02:52:19;;;;;;;16.90;10.70;;;;;;;19.41;81.17;98135.87;25102;1316;3059857;-61
2022/09/16 02:55:10;;;;;;;14.40;9.90;;;;;;;19.37;80.15;98136.84;25078;1316;3052298;-60
2022/09/16 02:57:40;;;;;;;15.00;10.10;;;;;;;18.85;81.97;98133.90;25027;1315;3052932;-62
2022/09/16 03:00:09;;;;;;;12.60;6.30;;;;;;;18.59;83.52;98131.13;24992;1316;3026871;-61
2022/09/16 03:02:39;;;;;;;12.60;8.40;;;;;;;18.99;82.02;98126.09;25001;1316;3026397;-61
2022/09/16 03:05:11;;;;;;;15.60;9.20;;;;;;;18.95;81.76;98136.42;25131;1316;3026473;-60
2022/09/16 03:07:40;;;;;;;15.80;9.10;;;;;;;18.83;82.05;98137.56;25108;1316;3051332;-60
2022/09/16 03:10:13;;;;;;;16.80;10.80;;;;;;;18.54;82.62;98130.52;25036;1316;3026285;-60
2022/09/16 03:13:08;;;;;;;17.40;10.30;;;;;;;18.15;83.82;98133.16;25096;1316;3049670;-60
2022/09/16 03:15:49;;;;;;;12.10;7.00;;;;;;;18.05;84.92;98146.48;25029;1315;3056968;-62
2022/09/16 03:18:48;;;;;;;15.50;9.00;;;;;;;18.49;83.04;98141.02;25072;1316;3052386;-60
2022/09/16 03:21:31;;;;;;;19.30;9.70;;;;;;;18.49;82.49;98143.63;25009;1316;3058787;-61
2022/09/16 03:24:04;;;;;;;20.60;10.70;;;;;;;18.42;82.32;98136.09;25094;1316;3050586;-60
2022/09/16 03:26:50;;;;;;;19.90;10.60;;;;;;;18.06;83.85;98142.27;25103;1315;3055769;-64
2022/09/16 03:29:23;;;;;;;12.20;6.60;;;;;;;17.86;85.38;98140.93;25089;1316;3054402;-60
2022/09/16 03:32:01;;;;;;;18.20;9.50;;;;;;;18.31;83.45;98129.52;25134;1316;3026413;-63
2022/09/16 03:34:43;;;;;;;16.10;9.20;;;;;;;18.50;82.65;98133.21;25013;1316;3052068;-60
2022/09/16 03:37:14;;;;;;;17.10;11.20;;;;;;;18.21;82.90;98141.13;25078;1316;3052420;-59
2022/09/16 03:39:48;;;;;;;15.70;10.60;;;;;;;17.98;84.32;98138.98;25045;1316;3027493;-61
2022/09/16 03:42:17;;;;;;;10.60;5.50;;;;;;;17.80;85.13;98143.59;25068;1315;3055303;-63
2022/09/16 03:44:46;;;;;;;10.70;6.90;;;;;;;18.38;83.08;98145.42;25117;1316;3026692;-63
2022/09/16 03:47:15;;;;;;;13.80;8.60;;;;;;;18.52;81.56;98146.27;25064;1316;3026118;-63
2022/09/16 03:49:45;;;;;;;13.00;9.20;;;;;;;18.34;82.28;98145.20;25052;1315;3026017;-62
2022/09/16 03:52:16;;;;;;;14.30;9.30;;;;;;;18.21;82.56;98145.59;25104;1314;3051430;-63
2022/09/16 03:54:45;;;;;;;13.00;8.90;;;;;;;17.87;84.13;98149.83;25076;1315;3026493;-64
2022/09/16 03:57:14;;;;;;;8.80;5.20;;;;;;;17.54;86.02;98153.39;25130;1315;3026943;-61
2022/09/16 03:59:43;;;;;;;12.10;7.10;;;;;;;17.85;85.41;98149.89;25046;1316;3051652;-62
2022/09/16 04:02:12;;;;;;;11.30;9.10;;;;;;;18.27;83.59;98149.73;25089;1316;3026527;-63
2022/09/16 04:04:41;;;;;;;11.40;8.40;;;;;;;18.21;83.03;98152.52;25042;1316;3058105;-60
2022/09/16 04:07:10;;;;;;;14.10;10.10;;;;;;;17.99;83.91;98157.64;25088;1316;3026867;-60
2022/09/16 04:09:41;;;;;;;12.60;9.40;;;;;;;17.71;85.15;98153.60;25120;1315;3026634;-60
2022/09/16 04:14:45;;;;;;;6.70;4.70;;;;;;;18.01;84.92;98154.52;31567;1317;3026486;-61
2022/09/16 04:17:14;;;;;;;15.00;11.70;;;;;;;18.55;82.85;98148.87;24959;1319;3026652;-61
2022/09/16 04:19:43;;;;;;;16.70;10.30;;;;;;;18.61;80.75;98155.70;25027;1319;3026419;-65
2022/09/16 04:22:12;;;;;;;14.90;10.40;;;;;;;18.21;82.26;98158.54;25048;1319;3050920;-62
2022/09/16 04:24:41;;;;;;;13.30;9.50;;;;;;;17.90;83.90;98160.02;25063;1319;3026905;-62
2022/09/16 04:27:08;;;;;;;13.30;9.50;;;;;;;17.85;84.56;98163.05;24228;1319;4837770;-61
2022/09/16 04:29:37;;;;;;;13.00;9.20;;;;;;;18.39;83.26;98155.60;25013;1316;3026626;-60
2022/09/16 04:32:06;;;;;;;15.60;9.20;;;;;;;18.74;80.73;98150.73;25105;1316;3026709;-62
2022/09/16 04:34:35;;;;;;;11.30;8.70;;;;;;;18.51;81.08;98156.51;25056;1316;3026373;-62
2022/09/16 04:37:06;;;;;;;11.80;9.10;;;;;;;18.26;82.54;98160.80;25078;1316;3053606;-63
2022/09/16 04:39:36;;;;;;;11.70;8.90;;;;;;;17.98;83.63;98162.25;25065;1316;3026428;-61
2022/09/16 04:42:05;;;;;;;9.10;5.10;;;;;;;17.81;84.46;98158.15;25048;1319;3027625;-64
2022/09/16 04:44:35;;;;;;;10.10;6.30;;;;;;;18.34;82.99;98151.16;25026;1319;3055592;-62
2022/09/16 04:47:04;;;;;;;12.20;8.40;;;;;;;18.77;80.51;98139.21;25052;1318;3026585;-60
2022/09/16 04:49:34;;;;;;;13.50;8.00;;;;;;;18.61;80.79;98133.24;25065;1316;3053350;-62
2022/09/16 04:52:03;;;;;;;11.20;8.80;;;;;;;18.41;81.91;98136.77;25022;1315;3026781;-61
2022/09/16 04:54:32;;;;;;;11.90;8.70;;;;;;;18.20;82.35;98137.75;25080;1316;3058197;-62
2022/09/16 04:57:01;;;;;;;7.30;4.60;;;;;;;18.03;83.71;98143.67;24989;1317;3026365;-62
2022/09/16 04:59:30;;;;;;;9.40;6.40;;;;;;;18.40;82.35;98138.99;25061;1319;3054557;-61
2022/09/16 05:02:00;;;;;;;10.40;6.70;;;;;;;18.62;80.73;98132.73;25047;1316;3027333;-59
2022/09/16 05:04:29;;;;;;;10.30;7.10;;;;;;;18.59;80.99;98144.16;25028;1316;3054655;-61
2022/09/16 05:06:59;;;;;;;11.60;7.30;;;;;;;18.43;81.36;98146.82;25106;1316;3026893;-61
2022/09/16 05:09:28;;;;;;;6.00;4.00;;;;;;;18.22;81.97;98145.84;25112;1316;3026496;-60
2022/09/16 05:11:58;;;;;;;8.70;6.10;;;;;;;18.64;80.96;98145.94;25064;1316;3053947;-61
2022/09/16 05:14:27;;;;;;;8.90;6.60;;;;;;;18.97;78.97;98147.91;25005;1316;3026591;-61
2022/09/16 05:16:56;;;;;;;9.10;7.10;;;;;;;19.08;78.49;98144.70;25140;1316;3026846;-61
2022/09/16 05:19:25;;;;;;;10.50;6.80;;;;;;;18.84;79.24;98149.50;25020;1316;3051278;-63
2022/09/16 05:21:54;;;;;;;11.70;6.60;;;;;;;18.66;80.03;98148.93;25131;1316;3026374;-61
2022/09/16 05:24:23;;;;;;;6.60;4.00;;;;;;;18.68;80.70;98143.77;25043;1316;3048591;-62
2022/09/16 05:26:52;;;;;;;8.90;5.30;;;;;;;19.32;78.60;98138.65;25098;1316;3026722;-62
2022/09/16 05:29:21;;;;;;;8.80;6.30;;;;;;;19.65;76.78;98137.48;25007;1316;3068126;-61
2022/09/16 05:31:50;;;;;;;8.50;5.70;;;;;;;19.77;76.03;98136.42;25088;1316;3026716;-61
2022/09/16 05:34:20;;;;;;;12.20;6.30;;;;;;;19.68;76.38;98133.75;25029;1316;3049631;-62
2022/09/16 05:36:52;;;;;;;12.30;6.30;;;;;;;19.54;76.32;98137.00;25032;1316;3026413;-63
2022/09/16 05:39:49;;;;;;;12.60;4.90;;;;;;;19.16;78.52;98143.20;25062;1315;3053858;-61
2022/09/16 05:42:18;;;;;;;13.30;6.20;;;;;;;19.75;76.79;98133.27;25103;1316;3026871;-64
2022/09/16 05:45:13;;;;;;;13.60;5.90;;;;;;;20.06;75.68;98138.02;25018;1316;3054664;-62
2022/09/16 05:47:48;;;;;;;7.30;6.30;;;;;;;19.83;76.75;98152.78;25119;1316;3026523;-61
2022/09/16 05:50:17;;;;;;;11.20;7.20;;;;;;;19.62;77.23;98157.15;25045;1316;3026423;-60
2022/09/16 05:52:46;;;;;;;10.50;6.40;;;;;;;19.35;78.67;98156.48;25126;1316;3026609;-62
2022/09/16 05:55:15;;;;;;;7.80;4.40;;;;;;;19.25;79.19;98162.06;25042;1316;3057784;-62
2022/09/16 05:57:44;;;;;;;14.90;5.90;;;;;;;19.63;77.67;98154.26;25078;1315;3026155;-61
2022/09/16 06:00:13;;;;;;;11.20;6.30;;;;;;;20.08;77.00;98149.38;25030;1314;3054445;-63
2022/09/16 06:02:43;;;;;;;10.50;6.60;;;;;;;20.08;76.62;98142.41;25082;1316;3028227;-61
2022/09/16 06:05:12;;;;;;;10.00;7.40;;;;;;;19.90;77.83;98137.59;25128;1315;3026422;-66
2022/09/16 06:07:42;;;;;;;10.00;6.80;;;;;;;19.80;78.10;98135.65;25108;1316;3054967;-63
2022/09/16 06:10:11;;;;;;;6.00;3.90;;;;;;;19.71;78.71;98141.91;25078;1316;3026448;-63
2022/09/16 06:13:06;;;;;;;9.70;6.00;;;;;;;20.38;76.68;98139.67;25069;1316;3052311;-65
2022/09/16 06:15:36;;;;;;;8.50;6.10;;;;;;;20.55;75.15;98136.41;25098;1316;3026993;-65
2022/09/16 06:18:06;;;;;;;7.60;6.20;;;;;;;20.54;75.00;98129.17;25087;1316;3026606;-62
2022/09/16 06:20:35;;;;;;;11.80;5.70;;;;;;;20.46;76.28;98127.50;25014;1316;3054352;-64
2022/09/16 06:23:04;;;;;;;8.40;7.20;;;;;;;20.54;75.84;98123.48;25158;1316;3026195;-68
2022/09/16 06:25:33;;;;;;;9.30;4.00;;;;;;;20.54;75.37;98131.52;25205;1315;3048531;-64
2022/09/16 06:28:02;;;;;;;9.10;5.30;;;;;;;21.06;74.45;98128.27;25183;1316;3026545;-64
2022/09/16 06:30:31;;;;;;;7.90;5.30;;;;;;;21.52;71.35;98127.47;25102;1316;3070840;-64
2022/09/16 06:33:01;;;;;;;7.70;5.10;;;;;;;21.52;71.08;98133.17;25079;1316;3026725;-64
2022/09/16 06:35:30;;;;;;;10.10;5.40;;;;;;;21.50;70.95;98128.55;25164;1315;3028103;-65
2022/09/16 06:38:01;;;;;;;10.70;5.80;;;;;;;21.44;70.93;98126.73;25135;1316;3071295;-67
2022/09/16 06:40:30;;;;;;;8.20;5.00;;;;;;;21.42;71.43;98124.99;25179;1316;3026668;-61
2022/09/16 06:42:59;;;;;;;7.90;4.50;;;;;;;21.26;71.06;98122.47;25041;1316;3026812;-62
2022/09/16 06:45:28;;;;;;;4.70;2.70;;;;;;;21.19;71.84;98110.13;25085;1316;3070840;-66
2022/09/16 06:47:59;;;;;;;11.40;4.30;;;;;;;21.67;70.25;98107.68;25072;1316;3026486;-66
2022/09/16 06:50:28;;;;;;;6.30;4.30;;;;;;;21.96;69.04;98108.37;25151;1316;3051111;-66
2022/09/16 06:52:58;;;;;;;6.20;3.90;;;;;;;22.00;68.80;98121.05;25130;1316;3026622;-66
2022/09/16 06:55:27;;;;;;;5.70;4.00;;;;;;;21.85;68.37;98126.58;25202;1316;3026658;-64
2022/09/16 06:57:56;;;;;;;7.20;4.60;;;;;;;21.75;69.34;98133.11;25142;1316;3050784;-65
2022/09/16 07:00:26;;;;;;;7.10;4.50;;;;;;;21.66;70.21;98131.48;25060;1316;3027888;-68
2022/09/16 07:02:54;;;;;;;12.60;5.50;;;;;;;21.47;71.28;98134.41;25085;1316;3026523;-64
2022/09/16 07:05:24;;;;;;;5.70;3.70;;;;;;;21.31;72.72;98135.13;25114;1316;3052709;-64
2022/09/16 07:07:53;;;;;;;8.30;5.30;;;;;;;21.72;72.11;98128.92;25098;1316;3026223;-64
2022/09/16 07:10:24;;;;;;;6.80;5.30;;;;;;;21.99;70.83;98129.44;25106;1316;3026833;-63
2022/09/16 07:12:53;;;;;;;9.40;5.40;;;;;;;21.91;70.65;98132.30;25554;1315;3049914;-64
2022/09/16 07:15:24;;;;;;;9.60;6.00;;;;;;;21.73;70.93;98135.23;25486;1315;3026271;-65
2022/09/16 07:17:54;;;;;;;9.90;6.10;;;;;;;21.52;71.61;98128.89;25122;1316;3026487;-62
2022/09/16 07:20:24;;;;;;;9.60;5.50;;;;;;;21.44;71.60;98123.70;25099;1315;3048569;-65
2022/09/16 07:22:53;;;;;;;9.10;5.40;;;;;;;21.29;72.19;98120.94;25118;1315;3025807;-65
2022/09/16 07:25:23;;;;;;;8.40;3.40;;;;;;;21.21;72.17;98111.95;25105;1314;3054449;-64
2022/09/16 07:27:52;;;;;;;6.30;4.30;;;;;;;21.67;70.35;98110.08;25148;1315;3026744;-64
2022/09/16 07:30:20;;;;;;;6.40;4.20;;;;;;;22.08;68.08;98100.43;25068;1315;3049586;-63
2022/09/16 07:32:49;;;;;;;12.30;5.10;;;;;;;22.24;67.62;98103.35;25148;1316;3026862;-64
2022/09/16 07:35:18;;;;;;;8.40;5.50;;;;;;;22.20;68.33;98102.49;25140;1316;3057482;-63
2022/09/16 07:37:47;;;;;;;14.00;5.90;;;;;;;22.08;68.31;98102.02;25150;1316;3027057;-64
2022/09/16 07:40:17;;;;;;;10.50;5.40;;;;;;;22.09;68.72;98104.02;25100;1316;3026533;-64
2022/09/16 07:42:46;;;;;;;10.90;5.40;;;;;;;22.11;68.26;98099.63;25090;1316;3058286;-65
2022/09/16 07:45:15;;;;;;;9.60;6.00;;;;;;;21.95;67.93;98100.91;25088;1316;3027839;-63
2022/09/16 07:47:48;;;;;;;10.30;5.10;;;;;;;21.88;68.65;98104.55;25148;1316;3051751;-65
2022/09/16 07:50:17;;;;;;;10.30;3.70;;;;;;;21.84;68.64;98099.27;25063;1316;3026217;-64
2022/09/16 07:52:45;;;;;;;9.20;4.50;;;;;;;22.37;66.76;98096.24;25048;1316;3026813;-62
2022/09/16 07:55:16;;;;;;;10.40;4.50;;;;;;;22.74;65.76;98096.56;25112;1316;3054901;-63
2022/09/16 07:57:45;;;;;;;9.80;4.10;;;;;;;22.88;65.58;98096.39;25068;1316;3026085;-62
2022/09/16 08:00:15;;;;;;;8.50;4.90;;;;;;;22.84;65.83;98093.75;25096;1316;3026702;-63
2022/09/16 08:02:44;;;;;;;10.10;4.50;;;;;;;22.68;66.14;98088.68;25119;1316;3052322;-64
2022/09/16 08:05:15;;;;;;;13.80;4.60;;;;;;;22.66;66.17;98090.00;25067;1316;3027093;-65
2022/09/16 08:07:45;;;;;;;8.90;4.00;;;;;;;22.57;66.88;98094.56;25074;1315;3051260;-64
2022/09/16 08:10:15;;;;;;;8.40;5.40;;;;;;;22.44;67.31;98090.96;25126;1316;3026235;-65
2022/09/16 08:12:47;;;;;;;8.50;4.60;;;;;;;22.23;67.76;98092.94;25065;1316;3048169;-61
2022/09/16 08:15:16;;;;;;;11.30;4.80;;;;;;;22.25;67.40;98090.93;25135;1316;3029004;-63
2022/09/16 08:17:46;;;;;;;15.10;5.50;;;;;;;22.09;67.74;98077.85;25104;1316;3027188;-63
2022/09/16 08:20:15;;;;;;;9.60;3.30;;;;;;;22.16;67.46;98073.91;25037;1316;3026576;-63
2022/09/16 08:22:44;;;;;;;10.30;3.90;;;;;;;22.72;65.75;98070.70;25118;1316;3054270;-64
2022/09/16 08:25:13;;;;;;;10.90;4.20;;;;;;;23.08;64.45;98075.46;25074;1316;3028211;-65
2022/09/16 08:27:43;;;;;;;9.60;4.10;;;;;;;23.12;64.23;98072.48;25125;1316;3051397;-64
2022/09/16 08:30:13;;;;;;;12.90;6.20;;;;;;;23.14;64.27;98069.34;25109;1316;3026537;-64
2022/09/16 08:32:42;;;;;;;16.10;4.70;;;;;;;23.15;64.59;98066.16;25148;1316;3026253;-65
2022/09/16 08:35:13;;;;;;;8.30;4.70;;;;;;;23.15;65.09;98062.45;25142;1315;3051089;-63
2022/09/16 08:37:42;;;;;;;7.70;4.70;;;;;;;23.25;65.18;98056.34;25124;1316;3027048;-65
2022/09/16 08:40:15;;;;;;;10.60;4.70;;;;;;;23.29;65.60;98054.31;25056;1316;3026607;-64
2022/09/16 08:42:50;;;;;;;11.70;4.50;;;;;;;23.30;64.64;98053.93;25091;1315;3049654;-64
2022/09/16 08:45:45;;;;;;;9.10;4.90;;;;;;;23.26;64.32;98056.71;25111;1316;3055038;-64
2022/09/16 08:48:30;;;;;;;9.50;4.30;;;;;;;23.19;64.68;98054.04;25085;1316;3054796;-63
2022/09/16 08:51:00;;;;;;;8.10;4.10;;;;;;;23.04;64.08;98053.30;25134;1316;3056555;-63
2022/09/16 08:53:48;;;;;;;5.40;3.60;;;;;;;23.09;63.78;98055.63;25179;1315;3026392;-63
2022/09/16 08:56:19;;;;;;;7.50;3.80;;;;;;;23.05;64.06;98059.23;25125;1316;3055056;-65
2022/09/16 08:58:53;;;;;;;8.10;3.90;;;;;;;22.98;64.45;98057.05;25105;1316;3026693;-62
2022/09/16 09:01:44;;;;;;;10.20;3.60;;;;;;;22.94;64.62;98060.88;25087;1313;3052316;-63
2022/09/16 09:04:13;;;;;;;10.20;4.30;;;;;;;22.88;65.81;98060.02;25054;1316;3053205;-65
2022/09/16 09:06:57;;;;;;;7.10;2.50;;;;;;;22.80;65.88;98058.91;25094;1315;3026725;-62
2022/09/16 09:09:29;;;;;;;;;;;;;;;23.49;63.79;98052.39;25109;1316;3069300;-63
2022/09/16 09:12:17;;;;;;;8.50;3.60;;;;;;;23.93;62.41;98046.23;25146;1315;3026486;-64
2022/09/16 09:15:08;;;;;;;12.80;4.00;;;;;;;24.04;62.10;98045.85;25157;1316;3052676;-66
2022/09/16 09:18:14;;;;;;;8.60;4.60;;;;;;;23.91;61.96;98045.31;25095;1316;3055180;-65
2022/09/16 09:21:10;;;;;;;10.20;4.50;;;;;;;23.65;62.65;98044.96;24813;1315;3059394;-64
2022/09/16 09:24:05;;;;;;;7.20;3.90;;;;;;;23.36;62.90;98048.90;25072;1316;3052668;-64
2022/09/16 09:26:50;;;;;;;7.20;3.80;;;;;;;23.18;63.70;98045.26;25135;1316;3056089;-66
2022/09/16 09:29:42;;;;;;;12.20;4.10;;;;;;;23.06;63.96;98049.26;25073;1316;3052943;-66
2022/09/16 09:32:25;;;;;;;5.80;3.70;;;;;;;22.98;64.31;98050.17;24973;1318;3069228;-63
2022/09/16 09:35:06;;;;;;;8.70;3.40;;;;;;;22.91;64.82;98056.80;25048;1316;3051935;-64
2022/09/16 09:37:57;;;;;;;5.70;3.80;;;;;;;22.91;64.84;98055.61;25168;1315;3053005;-64
2022/09/16 09:40:44;;;;;;;5.30;3.70;;;;;;;22.94;64.77;98058.48;25080;1316;3055870;-63
2022/09/16 09:43:19;;;;;;;5.00;3.60;;;;;;;22.86;64.36;98058.16;25061;1316;3058695;-63
2022/09/16 09:46:09;;;;;;;7.00;3.40;;;;;;;22.73;64.87;98057.11;25182;1313;3054000;-63
2022/09/16 09:48:44;;;;;;;8.00;3.60;;;;;;;22.70;64.97;98054.05;25130;1315;3054583;-63
2022/09/16 09:51:19;;;;;;;5.40;3.30;;;;;;;22.70;65.42;98050.76;25087;1316;3051123;-63
2022/09/16 09:53:51;;;;;;;5.50;3.30;;;;;;;22.76;65.45;98045.11;25156;1316;3068374;-63
2022/09/16 09:56:24;;;;;;;4.30;2.10;;;;;;;22.86;65.46;98044.36;25113;1316;3026503;-64
2022/09/16 09:59:02;;;;;;;11.40;3.40;;;;;;;23.65;64.10;98045.25;25049;1316;3026181;-63
2022/09/16 10:01:31;;;;;;;6.40;2.70;;;;;;;24.18;62.37;98042.41;25019;1314;3053637;-62
2022/09/16 10:04:00;;;;;;;7.30;3.20;;;;;;;24.28;61.74;98040.61;25107;1316;3026298;-65
2022/09/16 10:06:32;;;;;;;10.30;3.90;;;;;;;24.16;61.71;98043.42;24968;1316;3054811;-64
2022/09/16 10:09:04;;;;;;;6.30;3.30;;;;;;;24.09;61.96;98048.71;25026;1316;3051826;-63
2022/09/16 10:11:34;;;;;;;9.00;3.20;;;;;;;23.98;62.04;98047.93;25033;1316;3026609;-63
2022/09/16 10:14:04;;;;;;;7.20;3.40;;;;;;;23.93;62.31;98045.50;24935;1316;3028446;-63
2022/09/16 10:16:36;;;;;;;7.70;3.20;;;;;;;23.92;62.52;98043.96;25051;1319;3054151;-62
2022/09/16 10:19:18;;;;;;;7.30;3.70;;;;;;;23.90;62.61;98046.86;25087;1316;3026779;-64
2022/09/16 10:21:49;;;;;;;9.20;4.10;;;;;;;23.79;62.98;98041.73;25105;1318;3052422;-65
2022/09/16 10:24:29;;;;;;;5.50;3.10;;;;;;;23.77;62.97;98042.61;25110;1316;3027050;-64
2022/09/16 10:26:58;;;;;;;7.80;3.70;;;;;;;23.82;63.06;98042.74;25036;1313;3051372;-64
2022/09/16 10:29:27;;;;;;;8.80;3.60;;;;;;;23.89;62.53;98038.60;25013;1313;3026466;-63
2022/09/16 10:32:02;;;;;;;13.10;3.90;;;;;;;24.02;62.37;98036.53;25164;1313;3030321;-62
2022/09/16 10:34:38;;;;;;;10.40;4.00;;;;;;;24.19;62.10;98028.77;25044;1318;3051308;-63
2022/09/16 10:37:13;;;;;;;5.40;3.90;;;;;;;24.25;62.15;98032.84;25035;1313;3026735;-64
2022/09/16 10:39:54;;;;;;;8.20;3.90;;;;;;;24.30;61.99;98035.48;25076;1315;3053333;-64
2022/09/16 10:42:26;;;;;;;9.40;3.60;;;;;;;24.38;61.89;98033.91;25030;1316;3051667;-63
2022/09/16 10:45:17;;;;;;;6.20;3.50;;;;;;;24.51;61.57;98028.86;25137;1313;3051539;-63
2022/09/16 10:47:51;;;;;;;11.20;4.60;;;;;;;24.63;61.02;98029.33;25162;1313;3059038;-64
2022/09/16 10:50:20;;;;;;;12.00;7.30;;;;;;;24.45;62.84;98034.44;25104;1315;3048667;-66
2022/09/16 10:52:50;;;;;;;20.20;9.50;;;;;;;24.34;63.68;98029.39;25071;1313;3026459;-65
2022/09/16 10:55:22;;;;;;;17.00;9.80;;;;;;;23.87;65.32;98039.67;25186;1316;3026639;-63
2022/09/16 10:57:53;;;;;;;20.60;9.40;;;;;;;23.44;66.68;98044.91;25068;1312;3026556;-65
2022/09/16 11:00:30;;;;;;;23.20;13.10;;;;;;;23.14;67.81;98041.35;25202;1313;3026665;-67
2022/09/16 11:03:24;;;;;;;15.50;7.70;;;;;;;23.02;68.43;98036.29;25209;1313;3052540;-63
2022/09/16 11:06:00;;;;;;;20.20;10.20;;;;;;;23.59;66.59;98029.92;25220;1313;3055343;-64
2022/09/16 11:08:47;;;;;;;19.60;9.40;;;;;;;23.70;66.27;98031.84;25139;1313;3057673;-66
2022/09/16 11:11:38;;;;;;;22.20;10.20;;;;;;;23.55;66.29;98029.98;25149;1312;3050642;-66
2022/09/16 11:14:22;;;;;;;17.70;10.80;;;;;;;22.96;68.19;98032.66;25136;1312;3055870;-63
2022/09/16 11:17:13;;;;;;;18.60;9.90;;;;;;;22.73;68.81;98031.48;25042;1312;3051627;-65
2022/09/16 11:20:05;;;;;;;19.90;9.80;;;;;;;22.56;69.40;98032.80;25117;1312;3071582;-65
2022/09/16 11:22:57;;;;;;;13.30;9.00;;;;;;;22.40;69.54;98030.23;25126;1312;3052139;-65
2022/09/16 11:25:38;;;;;;;18.40;10.60;;;;;;;22.05;70.48;98038.61;25121;1313;3052911;-67
2022/09/16 11:28:19;;;;;;;14.20;9.80;;;;;;;21.71;71.80;98035.92;25112;1312;3055541;-63
2022/09/16 11:31:17;;;;;;;13.10;6.10;;;;;;;21.81;71.59;98033.83;25104;1312;3056861;-65
2022/09/16 11:34:02;;;;;;;13.40;7.70;;;;;;;22.48;69.37;98030.27;25144;1315;3052907;-66
2022/09/16 11:36:40;;;;;;;12.50;7.30;;;;;;;22.58;68.48;98038.25;25156;1312;3052661;-69
2022/09/16 11:39:34;;;;;;;12.40;7.90;;;;;;;22.33;69.12;98035.08;25201;1313;3053378;-66
2022/09/16 11:42:12;;;;;;;18.90;8.10;;;;;;;21.85;70.90;98044.61;25162;1313;3071035;-65
2022/09/16 11:44:46;;;;;;;18.60;8.40;;;;;;;21.57;72.30;98045.70;25142;1312;3048187;-66
2022/09/16 11:47:23;;;;;;;12.80;8.10;;;;;;;21.45;72.92;98043.44;25077;1312;3056508;-64